createdAt,value
2018-07-25T00:00:10.517Z,0.00
2018-07-25T00:01:10.517Z,0.00
2018-07-25T00:02:10.515Z,0.00
2018-07-25T00:03:10.564Z,0.00
2018-07-25T00:04:10.514Z,0.00
2018-07-25T00:05:10.519Z,0.00
2018-07-25T00:06:10.530Z,0.00
2018-07-25T00:07:10.513Z,0.00
2018-07-25T00:08:10.510Z,0.00
2018-07-25T00:09:10.510Z,0.00
2018-07-25T00:10:10.511Z,0.00
2018-07-25T00:11:10.511Z,0.00
2018-07-25T00:12:10.509Z,0.00
2018-07-25T00:13:10.512Z,0.00
2018-07-25T00:14:10.515Z,0.00
2018-07-25T00:15:10.507Z,0.00
2018-07-25T00:16:10.510Z,0.00
2018-07-25T00:17:10.506Z,0.00
2018-07-25T00:18:10.508Z,0.00
2018-07-25T00:19:10.505Z,0.00
2018-07-25T00:20:10.505Z,0.00
2018-07-25T00:21:10.502Z,0.00
2018-07-25T00:22:10.503Z,0.00
2018-07-25T00:23:10.505Z,0.00
2018-07-25T00:24:10.501Z,0.00
2018-07-25T00:25:10.501Z,0.00
2018-07-25T00:26:10.499Z,0.00
2018-07-25T00:27:10.509Z,0.00
2018-07-25T00:28:10.616Z,0.00
2018-07-25T00:29:10.500Z,0.00
2018-07-25T00:30:10.499Z,0.00
2018-07-25T00:31:10.523Z,0.00
2018-07-25T00:32:10.499Z,0.00
2018-07-25T00:33:10.494Z,0.00
2018-07-25T00:34:10.499Z,0.00
2018-07-25T00:35:10.493Z,0.00
2018-07-25T00:36:10.493Z,0.00
2018-07-25T00:37:10.495Z,0.00
2018-07-25T00:38:10.495Z,0.00
2018-07-25T00:39:10.496Z,0.00
2018-07-25T00:40:10.489Z,0.00
2018-07-25T00:41:10.487Z,0.00
2018-07-25T00:42:10.492Z,0.00
2018-07-25T00:43:10.485Z,0.00
2018-07-25T00:44:10.482Z,0.00
2018-07-25T00:45:10.492Z,0.00
2018-07-25T00:46:10.485Z,0.00
2018-07-25T00:47:10.482Z,0.00
2018-07-25T00:48:10.479Z,0.00
2018-07-25T00:49:10.480Z,0.00
2018-07-25T00:50:10.480Z,0.00
2018-07-25T00:51:10.477Z,0.00
2018-07-25T00:52:10.482Z,0.00
2018-07-25T00:53:10.480Z,0.00
2018-07-25T00:54:10.476Z,0.00
2018-07-25T00:55:10.475Z,0.00
2018-07-25T00:56:10.477Z,0.00
2018-07-25T00:57:10.476Z,0.00
2018-07-25T00:58:10.473Z,0.00
2018-07-25T00:59:10.479Z,0.00
2018-07-25T01:00:10.474Z,0.00
2018-07-25T01:01:10.474Z,0.00
2018-07-25T01:02:10.501Z,0.00
2018-07-25T01:03:10.471Z,0.00
2018-07-25T01:04:10.464Z,0.00
2018-07-25T01:05:10.471Z,0.00
2018-07-25T01:06:10.464Z,0.00
2018-07-25T01:07:10.462Z,0.00
2018-07-25T01:08:10.462Z,0.00
2018-07-25T01:09:10.459Z,0.00
2018-07-25T01:10:10.470Z,0.00
2018-07-25T01:11:10.464Z,0.00
2018-07-25T01:12:10.463Z,0.00
2018-07-25T01:13:10.464Z,0.00
2018-07-25T01:14:10.455Z,0.00
2018-07-25T01:15:10.454Z,0.00
2018-07-25T01:16:10.451Z,0.00
2018-07-25T01:17:10.458Z,0.00
2018-07-25T01:18:10.456Z,0.00
2018-07-25T01:19:10.454Z,0.00
2018-07-25T01:20:10.449Z,0.00
2018-07-25T01:21:10.450Z,0.00
2018-07-25T01:22:10.445Z,0.00
2018-07-25T01:23:10.449Z,0.00
2018-07-25T01:24:10.443Z,0.00
2018-07-25T01:25:10.447Z,0.00
2018-07-25T01:26:10.492Z,0.00
2018-07-25T01:27:10.445Z,0.00
2018-07-25T01:28:10.439Z,0.00
2018-07-25T01:29:10.438Z,0.00
2018-07-25T01:30:10.439Z,0.00
2018-07-25T01:31:10.436Z,0.00
2018-07-25T01:32:10.436Z,0.00
2018-07-25T01:33:10.440Z,0.00
2018-07-25T01:34:10.434Z,0.00
2018-07-25T01:35:10.432Z,0.00
2018-07-25T01:36:10.432Z,0.00
2018-07-25T01:37:10.429Z,0.00
2018-07-25T01:38:10.430Z,0.00
2018-07-25T01:39:10.426Z,0.00
2018-07-25T01:40:10.425Z,0.00
2018-07-25T01:41:10.428Z,0.00
2018-07-25T01:42:10.426Z,0.00
2018-07-25T01:43:10.421Z,0.00
2018-07-25T01:44:10.424Z,0.00
2018-07-25T01:45:10.425Z,0.00
2018-07-25T01:46:10.421Z,0.00
2018-07-25T01:47:10.417Z,0.00
2018-07-25T01:48:10.415Z,0.00
2018-07-25T01:49:10.416Z,0.00
2018-07-25T01:50:10.411Z,0.00
2018-07-25T01:51:10.411Z,0.00
2018-07-25T01:52:10.410Z,0.00
2018-07-25T01:53:10.412Z,0.00
2018-07-25T01:54:10.407Z,0.00
2018-07-25T01:55:10.415Z,0.00
2018-07-25T01:56:10.411Z,0.00
2018-07-25T01:57:10.407Z,0.00
2018-07-25T01:58:10.404Z,0.00
2018-07-25T01:59:10.401Z,0.00
2018-07-25T02:00:10.400Z,0.00
2018-07-25T02:01:10.399Z,0.00
2018-07-25T02:02:10.398Z,0.00
2018-07-25T02:03:10.395Z,0.00
2018-07-25T02:04:10.392Z,0.00
2018-07-25T02:05:10.395Z,0.00
2018-07-25T02:06:10.395Z,0.00
2018-07-25T02:07:10.391Z,0.00
2018-07-25T02:08:10.442Z,0.00
2018-07-25T02:09:10.394Z,0.00
2018-07-25T02:10:10.391Z,0.00
2018-07-25T02:11:10.387Z,0.00
2018-07-25T02:12:10.391Z,0.00
2018-07-25T02:13:10.380Z,0.00
2018-07-25T02:14:10.379Z,0.00
2018-07-25T02:15:10.382Z,0.00
2018-07-25T02:16:10.376Z,0.00
2018-07-25T02:17:10.376Z,0.00
2018-07-25T02:18:10.378Z,0.00
2018-07-25T02:19:10.374Z,0.00
2018-07-25T02:20:10.371Z,0.00
2018-07-25T02:21:10.376Z,0.00
2018-07-25T02:22:10.366Z,0.00
2018-07-25T02:23:10.366Z,0.00
2018-07-25T02:24:10.369Z,0.00
2018-07-25T02:25:10.368Z,0.00
2018-07-25T02:26:10.366Z,0.00
2018-07-25T02:27:10.360Z,0.00
2018-07-25T02:28:10.360Z,0.00
2018-07-25T02:29:10.362Z,0.00
2018-07-25T02:30:10.361Z,0.00
2018-07-25T02:31:10.357Z,0.00
2018-07-25T02:32:10.359Z,0.00
2018-07-25T02:33:10.353Z,0.00
2018-07-25T02:34:10.351Z,0.00
2018-07-25T02:35:10.354Z,0.00
2018-07-25T02:36:10.352Z,0.00
2018-07-25T02:37:10.346Z,0.00
2018-07-25T02:38:10.343Z,0.00
2018-07-25T02:39:10.344Z,0.00
2018-07-25T02:40:10.346Z,0.00
2018-07-25T02:41:10.340Z,0.00
2018-07-25T02:42:10.338Z,0.00
2018-07-25T02:43:10.342Z,0.00
2018-07-25T02:44:10.341Z,0.00
2018-07-25T02:45:10.334Z,0.00
2018-07-25T02:46:10.336Z,0.00
2018-07-25T02:47:10.332Z,0.00
2018-07-25T02:48:10.354Z,0.00
2018-07-25T02:49:10.335Z,0.00
2018-07-25T02:50:10.326Z,0.00
2018-07-25T02:51:10.324Z,0.00
2018-07-25T02:52:10.321Z,0.00
2018-07-25T02:53:10.323Z,0.00
2018-07-25T02:54:10.320Z,0.00
2018-07-25T02:55:10.321Z,0.00
2018-07-25T02:56:10.318Z,0.00
2018-07-25T02:57:10.315Z,0.00
2018-07-25T02:58:10.311Z,0.00
2018-07-25T02:59:10.316Z,0.00
2018-07-25T03:00:10.309Z,0.00
2018-07-25T03:01:10.309Z,0.00
2018-07-25T03:02:10.311Z,0.00
2018-07-25T03:03:10.343Z,0.00
2018-07-25T03:04:10.299Z,0.00
2018-07-25T03:05:10.308Z,0.00
2018-07-25T03:06:10.296Z,0.00
2018-07-25T03:07:10.301Z,0.00
2018-07-25T03:08:10.293Z,0.00
2018-07-25T03:09:10.425Z,0.00
2018-07-25T03:10:10.290Z,0.00
2018-07-25T03:11:10.301Z,0.00
2018-07-25T03:12:10.298Z,0.00
2018-07-25T03:13:10.286Z,0.00
2018-07-25T03:14:10.313Z,0.00
2018-07-25T03:15:10.286Z,0.00
2018-07-25T03:16:10.279Z,0.00
2018-07-25T03:17:10.277Z,0.00
2018-07-25T03:18:10.280Z,0.00
2018-07-25T03:19:10.281Z,0.00
2018-07-25T03:20:10.272Z,4.00
2018-07-25T03:21:10.276Z,0.00
2018-07-25T03:22:10.271Z,0.00
2018-07-25T03:23:10.272Z,0.00
2018-07-25T03:24:10.267Z,4.00
2018-07-25T03:25:10.270Z,0.00
2018-07-25T03:26:10.263Z,4.00
2018-07-25T03:27:10.259Z,0.00
2018-07-25T03:28:10.256Z,4.00
2018-07-25T03:29:10.257Z,4.00
2018-07-25T03:30:10.261Z,4.00
2018-07-25T03:31:10.255Z,4.00
2018-07-25T03:32:10.253Z,8.00
2018-07-25T03:33:10.250Z,8.00
2018-07-25T03:34:10.245Z,8.00
2018-07-25T03:35:10.244Z,12.00
2018-07-25T03:36:10.240Z,8.00
2018-07-25T03:37:10.239Z,12.00
2018-07-25T03:38:10.237Z,16.00
2018-07-25T03:39:10.240Z,16.00
2018-07-25T03:40:10.235Z,16.00
2018-07-25T03:41:10.232Z,20.00
2018-07-25T03:42:10.237Z,24.00
2018-07-25T03:43:10.227Z,28.00
2018-07-25T03:44:10.228Z,28.00
2018-07-25T03:45:10.228Z,32.00
2018-07-25T03:46:10.223Z,36.00
2018-07-25T03:47:10.219Z,40.00
2018-07-25T03:48:10.258Z,44.00
2018-07-25T03:49:10.215Z,48.00
2018-07-25T03:50:10.216Z,52.00
2018-07-25T03:51:10.214Z,60.00
2018-07-25T03:52:10.211Z,64.00
2018-07-25T03:53:10.212Z,72.00
2018-07-25T03:54:10.206Z,76.00
2018-07-25T03:55:10.213Z,84.00
2018-07-25T03:56:10.202Z,88.00
2018-07-25T03:57:10.201Z,96.00
2018-07-25T03:58:10.197Z,108.00
2018-07-25T03:59:10.195Z,116.00
2018-07-25T04:00:10.193Z,124.00
2018-07-25T04:01:10.191Z,136.00
2018-07-25T04:02:10.190Z,148.00
2018-07-25T04:03:10.188Z,160.00
2018-07-25T04:04:10.190Z,172.00
2018-07-25T04:05:10.189Z,188.00
2018-07-25T04:06:10.181Z,200.00
2018-07-25T04:07:10.178Z,216.00
2018-07-25T04:08:10.212Z,236.00
2018-07-25T04:09:10.217Z,256.00
2018-07-25T04:10:10.172Z,276.00
2018-07-25T04:11:10.174Z,296.00
2018-07-25T04:12:10.169Z,320.00
2018-07-25T04:13:10.167Z,344.00
2018-07-25T04:14:10.168Z,368.00
2018-07-25T04:15:10.165Z,396.00
2018-07-25T04:16:10.160Z,420.00
2018-07-25T04:17:10.160Z,444.00
2018-07-25T04:18:10.158Z,476.00
2018-07-25T04:19:10.156Z,508.00
2018-07-25T04:20:10.154Z,540.00
2018-07-25T04:21:10.150Z,572.00
2018-07-25T04:22:10.148Z,604.00
2018-07-25T04:23:10.147Z,640.00
2018-07-25T04:24:10.146Z,676.00
2018-07-25T04:25:10.143Z,708.00
2018-07-25T04:26:10.145Z,744.00
2018-07-25T04:27:10.141Z,780.00
2018-07-25T04:28:10.135Z,816.00
2018-07-25T04:29:10.139Z,852.00
2018-07-25T04:30:10.158Z,892.00
2018-07-25T04:31:10.132Z,932.00
2018-07-25T04:32:10.128Z,968.00
2018-07-25T04:33:10.126Z,1080.00
2018-07-25T04:34:10.125Z,1092.00
2018-07-25T04:35:10.126Z,1400.00
2018-07-25T04:36:10.120Z,2016.00
2018-07-25T04:37:10.117Z,2676.00
2018-07-25T04:38:10.118Z,3132.00
2018-07-25T04:39:10.115Z,3268.00
2018-07-25T04:40:10.113Z,3224.00
2018-07-25T04:41:10.110Z,3272.00
2018-07-25T04:42:10.115Z,3352.00
2018-07-25T04:43:10.109Z,3724.00
2018-07-25T04:44:10.107Z,4140.00
2018-07-25T04:45:10.105Z,4684.00
2018-07-25T04:46:10.122Z,4732.00
2018-07-25T04:47:10.111Z,5160.00
2018-07-25T04:48:10.103Z,5564.00
2018-07-25T04:49:10.103Z,5784.00
2018-07-25T04:50:10.108Z,6052.00
2018-07-25T04:51:10.110Z,6472.00
2018-07-25T04:52:10.106Z,7104.00
2018-07-25T04:53:10.104Z,7384.00
2018-07-25T04:54:10.104Z,7536.00
2018-07-25T04:55:10.108Z,7844.00
2018-07-25T04:56:10.184Z,7972.00
2018-07-25T04:57:10.111Z,8736.00
2018-07-25T04:58:10.114Z,9056.00
2018-07-25T04:59:10.110Z,9696.00
2018-07-25T05:00:10.114Z,10112.00
2018-07-25T05:01:10.112Z,10752.00
2018-07-25T05:02:10.120Z,10752.00
2018-07-25T05:03:10.115Z,11008.00
2018-07-25T05:04:10.116Z,12128.00
2018-07-25T05:05:10.120Z,12256.00
2018-07-25T05:06:10.123Z,12512.00
2018-07-25T05:07:10.187Z,13184.00
2018-07-25T05:08:10.127Z,13120.00
2018-07-25T05:09:10.129Z,12832.00
2018-07-25T05:10:10.132Z,12096.00
2018-07-25T05:11:10.140Z,12896.00
2018-07-25T05:12:10.139Z,13824.00
2018-07-25T05:13:10.140Z,12256.00
2018-07-25T05:14:10.143Z,5844.00
2018-07-25T05:15:10.156Z,3336.00
2018-07-25T05:16:10.158Z,3292.00
2018-07-25T05:17:10.154Z,3300.00
2018-07-25T05:18:10.162Z,3332.00
2018-07-25T05:19:10.160Z,3340.00
2018-07-25T05:20:10.166Z,3332.00
2018-07-25T05:21:10.180Z,3332.00
2018-07-25T05:22:10.173Z,3368.00
2018-07-25T05:23:10.180Z,3388.00
2018-07-25T05:24:10.175Z,3400.00
2018-07-25T05:25:10.174Z,3420.00
2018-07-25T05:26:10.181Z,3432.00
2018-07-25T05:27:10.181Z,3452.00
2018-07-25T05:28:10.182Z,3460.00
2018-07-25T05:29:10.188Z,3476.00
2018-07-25T05:30:10.193Z,3508.00
2018-07-25T05:31:10.189Z,3532.00
2018-07-25T05:32:10.191Z,3556.00
2018-07-25T05:33:10.196Z,3576.00
2018-07-25T05:34:10.194Z,3592.00
2018-07-25T05:35:10.197Z,3608.00
2018-07-25T05:36:10.200Z,3632.00
2018-07-25T05:37:10.201Z,3648.00
2018-07-25T05:38:10.229Z,3664.00
2018-07-25T05:39:10.206Z,3688.00
2018-07-25T05:40:10.210Z,3712.00
2018-07-25T05:41:10.209Z,3728.00
2018-07-25T05:42:10.209Z,3776.00
2018-07-25T05:43:10.210Z,3804.00
2018-07-25T05:44:10.218Z,3816.00
2018-07-25T05:45:10.213Z,3816.00
2018-07-25T05:46:10.219Z,3820.00
2018-07-25T05:47:10.218Z,3848.00
2018-07-25T05:48:10.220Z,3872.00
2018-07-25T05:49:10.220Z,3896.00
2018-07-25T05:50:10.219Z,3932.00
2018-07-25T05:51:10.220Z,3956.00
2018-07-25T05:52:10.222Z,3976.00
2018-07-25T05:53:10.225Z,3984.00
2018-07-25T05:54:10.226Z,3980.00
2018-07-25T05:55:10.229Z,3960.00
2018-07-25T05:56:10.235Z,3920.00
2018-07-25T05:57:10.228Z,3920.00
2018-07-25T05:58:10.230Z,3952.00
2018-07-25T05:59:10.235Z,3972.00
2018-07-25T06:00:10.239Z,4024.00
2018-07-25T06:01:10.234Z,4040.00
2018-07-25T06:02:10.237Z,4012.00
2018-07-25T06:03:10.293Z,4028.00
2018-07-25T06:04:10.284Z,4044.00
2018-07-25T06:05:10.240Z,4056.00
2018-07-25T06:06:10.295Z,4076.00
2018-07-25T06:07:10.245Z,4080.00
2018-07-25T06:08:10.251Z,4084.00
2018-07-25T06:09:10.271Z,4088.00
2018-07-25T06:10:10.253Z,4100.00
2018-07-25T06:11:10.268Z,4096.00
2018-07-25T06:12:10.255Z,4100.00
2018-07-25T06:13:10.297Z,4104.00
2018-07-25T06:14:10.305Z,4096.00
2018-07-25T06:15:10.255Z,4096.00
2018-07-25T06:16:10.263Z,4112.00
2018-07-25T06:17:10.264Z,4132.00
2018-07-25T06:18:10.259Z,4164.00
2018-07-25T06:19:10.262Z,4176.00
2018-07-25T06:20:10.269Z,4176.00
2018-07-25T06:21:10.264Z,4164.00
2018-07-25T06:22:10.264Z,4164.00
2018-07-25T06:23:10.269Z,4180.00
2018-07-25T06:24:10.273Z,4180.00
2018-07-25T06:25:10.269Z,4176.00
2018-07-25T06:26:10.272Z,4164.00
2018-07-25T06:27:10.275Z,4160.00
2018-07-25T06:28:10.275Z,4136.00
2018-07-25T06:29:10.276Z,4100.00
2018-07-25T06:30:10.283Z,4092.00
2018-07-25T06:31:10.295Z,4084.00
2018-07-25T06:32:10.285Z,4080.00
2018-07-25T06:33:10.283Z,4080.00
2018-07-25T06:34:10.286Z,4080.00
2018-07-25T06:35:10.286Z,4068.00
2018-07-25T06:36:10.292Z,4064.00
2018-07-25T06:37:10.291Z,4064.00
2018-07-25T06:38:10.292Z,4048.00
2018-07-25T06:39:10.293Z,4024.00
2018-07-25T06:40:10.299Z,4004.00
2018-07-25T06:41:10.303Z,4000.00
2018-07-25T06:42:10.301Z,3992.00
2018-07-25T06:43:10.341Z,3992.00
2018-07-25T06:44:10.331Z,3992.00
2018-07-25T06:45:10.304Z,3996.00
2018-07-25T06:46:10.306Z,4000.00
2018-07-25T06:47:10.314Z,4004.00
2018-07-25T06:48:10.310Z,4004.00
2018-07-25T06:49:10.315Z,4000.00
2018-07-25T06:50:10.325Z,4000.00
2018-07-25T06:51:10.317Z,3980.00
2018-07-25T06:52:10.323Z,3964.00
2018-07-25T06:53:10.330Z,3960.00
2018-07-25T06:54:10.324Z,3956.00
2018-07-25T06:55:10.326Z,3936.00
2018-07-25T06:56:10.383Z,3932.00
2018-07-25T06:57:10.383Z,3924.00
2018-07-25T06:58:10.337Z,3916.00
2018-07-25T06:59:10.338Z,3904.00
2018-07-25T07:00:10.334Z,3904.00
2018-07-25T07:01:10.335Z,3900.00
2018-07-25T07:02:10.338Z,3896.00
2018-07-25T07:03:10.364Z,3900.00
2018-07-25T07:04:10.349Z,3900.00
2018-07-25T07:05:10.349Z,3904.00
2018-07-25T07:06:10.383Z,3892.00
2018-07-25T07:07:10.356Z,3884.00
2018-07-25T07:08:10.353Z,3876.00
2018-07-25T07:09:10.359Z,3872.00
2018-07-25T07:10:10.356Z,3872.00
2018-07-25T07:11:10.364Z,3860.00
2018-07-25T07:12:10.383Z,3848.00
2018-07-25T07:13:10.363Z,3836.00
2018-07-25T07:14:10.367Z,3824.00
2018-07-25T07:15:10.421Z,3816.00
2018-07-25T07:16:10.371Z,3792.00
2018-07-25T07:17:10.379Z,3776.00
2018-07-25T07:18:10.382Z,3760.00
2018-07-25T07:19:10.380Z,3748.00
2018-07-25T07:20:10.381Z,3720.00
2018-07-25T07:21:10.389Z,3716.00
2018-07-25T07:22:10.386Z,3700.00
2018-07-25T07:23:10.388Z,3668.00
2018-07-25T07:24:10.524Z,3676.00
2018-07-25T07:25:10.400Z,3668.00
2018-07-25T07:26:10.409Z,3668.00
2018-07-25T07:27:10.450Z,3672.00
2018-07-25T07:28:10.407Z,3664.00
2018-07-25T07:29:10.403Z,3656.00
2018-07-25T07:30:10.406Z,3644.00
2018-07-25T07:31:10.409Z,3640.00
2018-07-25T07:32:10.411Z,3636.00
2018-07-25T07:33:10.414Z,3628.00
2018-07-25T07:34:10.418Z,3620.00
2018-07-25T07:35:10.436Z,3612.00
2018-07-25T07:36:10.438Z,3596.00
2018-07-25T07:37:10.431Z,3592.00
2018-07-25T07:38:10.428Z,3600.00
2018-07-25T07:39:10.438Z,3592.00
2018-07-25T07:40:10.436Z,3580.00
2018-07-25T07:41:10.441Z,3568.00
2018-07-25T07:42:10.440Z,3552.00
2018-07-25T07:43:10.443Z,3560.00
2018-07-25T07:44:10.520Z,3552.00
2018-07-25T07:45:10.447Z,3564.00
2018-07-25T07:46:10.456Z,3560.00
2018-07-25T07:47:10.458Z,3548.00
2018-07-25T07:48:10.456Z,3548.00
2018-07-25T07:49:10.465Z,3544.00
2018-07-25T07:50:10.462Z,3528.00
2018-07-25T07:51:10.466Z,3508.00
2018-07-25T07:52:10.469Z,3508.00
2018-07-25T07:53:10.476Z,3500.00
2018-07-25T07:54:10.476Z,3480.00
2018-07-25T07:55:10.479Z,3472.00
2018-07-25T07:56:10.481Z,3476.00
2018-07-25T07:57:10.486Z,3492.00
2018-07-25T07:58:10.488Z,3496.00
2018-07-25T07:59:10.491Z,3500.00
2018-07-25T08:00:10.495Z,3492.00
2018-07-25T08:01:10.497Z,3476.00
2018-07-25T08:02:10.505Z,3456.00
2018-07-25T08:03:10.511Z,3440.00
2018-07-25T08:04:10.506Z,3424.00
2018-07-25T08:05:10.518Z,3400.00
2018-07-25T08:06:10.515Z,3388.00
2018-07-25T08:07:10.518Z,3376.00
2018-07-25T08:08:10.524Z,3364.00
2018-07-25T08:09:10.526Z,3348.00
2018-07-25T08:10:10.527Z,3324.00
2018-07-25T08:11:10.544Z,3296.00
2018-07-25T08:12:10.537Z,3276.00
2018-07-25T08:13:10.540Z,3264.00
2018-07-25T08:14:10.543Z,3248.00
2018-07-25T08:15:10.549Z,3228.00
2018-07-25T08:16:10.553Z,3204.00
2018-07-25T08:17:10.555Z,3184.00
2018-07-25T08:18:10.566Z,3168.00
2018-07-25T08:19:10.578Z,3152.00
2018-07-25T08:20:10.569Z,3136.00
2018-07-25T08:21:10.668Z,3116.00
2018-07-25T08:22:10.574Z,3108.00
2018-07-25T08:23:10.578Z,3096.00
2018-07-25T08:24:10.582Z,3076.00
2018-07-25T08:25:10.589Z,3048.00
2018-07-25T08:26:10.590Z,3024.00
2018-07-25T08:27:10.594Z,3000.00
2018-07-25T08:28:10.601Z,2984.00
2018-07-25T08:29:10.605Z,2976.00
2018-07-25T08:30:10.605Z,2968.00
2018-07-25T08:31:10.607Z,2956.00
2018-07-25T08:32:10.614Z,2956.00
2018-07-25T08:33:10.615Z,2940.00
2018-07-25T08:34:10.622Z,2928.00
2018-07-25T08:35:10.625Z,2916.00
2018-07-25T08:36:10.632Z,2904.00
2018-07-25T08:37:10.633Z,2892.00
2018-07-25T08:38:10.641Z,2880.00
2018-07-25T08:39:10.641Z,2868.00
2018-07-25T08:40:10.649Z,2860.00
2018-07-25T08:41:10.708Z,2852.00
2018-07-25T08:42:10.653Z,2852.00
2018-07-25T08:43:10.659Z,2836.00
2018-07-25T08:44:10.664Z,2832.00
2018-07-25T08:45:10.665Z,2824.00
2018-07-25T08:46:10.671Z,2820.00
2018-07-25T08:47:10.673Z,2812.00
2018-07-25T08:48:10.677Z,2808.00
2018-07-25T08:49:10.686Z,2800.00
2018-07-25T08:50:10.691Z,2788.00
2018-07-25T08:51:10.692Z,2776.00
2018-07-25T08:52:10.699Z,2768.00
2018-07-25T08:53:10.698Z,2760.00
2018-07-25T08:54:10.704Z,2748.00
2018-07-25T08:55:10.707Z,2744.00
2018-07-25T08:56:10.716Z,2744.00
2018-07-25T08:57:10.715Z,2740.00
2018-07-25T08:58:10.722Z,2736.00
2018-07-25T08:59:10.725Z,2728.00
2018-07-25T09:00:10.729Z,2720.00
2018-07-25T09:01:10.733Z,2716.00
2018-07-25T09:02:10.741Z,2708.00
2018-07-25T09:03:10.743Z,2700.00
2018-07-25T09:04:10.746Z,2688.00
2018-07-25T09:05:10.757Z,2676.00
2018-07-25T09:06:10.756Z,2672.00
2018-07-25T09:07:10.760Z,2668.00
2018-07-25T09:08:10.769Z,2664.00
2018-07-25T09:09:10.772Z,2660.00
2018-07-25T09:10:10.774Z,2652.00
2018-07-25T09:11:10.779Z,2648.00
2018-07-25T09:12:10.785Z,2640.00
2018-07-25T09:13:10.841Z,2636.00
2018-07-25T09:14:10.792Z,2640.00
2018-07-25T09:15:10.799Z,2624.00
2018-07-25T09:16:10.801Z,2616.00
2018-07-25T09:17:10.809Z,2616.00
2018-07-25T09:18:10.867Z,2604.00
2018-07-25T09:19:10.826Z,2604.00
2018-07-25T09:20:10.822Z,2604.00
2018-07-25T09:21:10.826Z,2588.00
2018-07-25T09:22:10.832Z,2580.00
2018-07-25T09:23:10.841Z,2576.00
2018-07-25T09:24:10.840Z,2552.00
2018-07-25T09:25:10.912Z,2572.00
2018-07-25T09:26:10.850Z,2560.00
2018-07-25T09:27:10.862Z,2524.00
2018-07-25T09:28:10.865Z,2520.00
2018-07-25T09:29:10.867Z,2528.00
2018-07-25T09:30:10.871Z,2496.00
2018-07-25T09:31:10.876Z,2520.00
2018-07-25T09:32:10.882Z,2524.00
2018-07-25T09:33:10.885Z,2504.00
2018-07-25T09:34:11.094Z,2512.00
2018-07-25T09:35:10.896Z,2484.00
2018-07-25T09:36:10.902Z,2484.00
2018-07-25T09:37:10.910Z,2492.00
2018-07-25T09:38:10.915Z,2496.00
2018-07-25T09:39:10.919Z,2488.00
2018-07-25T09:40:10.924Z,2480.00
2018-07-25T09:41:10.930Z,2484.00
2018-07-25T09:42:10.935Z,2480.00
2018-07-25T09:43:10.941Z,2464.00
2018-07-25T09:44:10.948Z,2436.00
2018-07-25T09:45:10.949Z,2432.00
2018-07-25T09:46:10.975Z,2460.00
2018-07-25T09:47:10.960Z,2460.00
2018-07-25T09:48:10.963Z,2412.00
2018-07-25T09:49:10.968Z,2384.00
2018-07-25T09:50:10.978Z,2344.00
2018-07-25T09:51:10.979Z,2316.00
2018-07-25T09:52:10.988Z,2100.00
2018-07-25T09:53:11.062Z,1644.00
2018-07-25T09:54:10.993Z,1676.00
2018-07-25T09:55:11.000Z,1772.00
2018-07-25T09:56:11.003Z,2260.00
2018-07-25T09:57:11.008Z,2388.00
2018-07-25T09:58:11.031Z,2388.00
2018-07-25T09:59:11.042Z,2400.00
2018-07-25T10:00:11.032Z,2412.00
2018-07-25T10:01:11.131Z,2404.00
2018-07-25T10:02:11.031Z,2372.00
2018-07-25T10:03:11.037Z,2260.00
2018-07-25T10:04:11.038Z,2280.00
2018-07-25T10:05:11.045Z,2368.00
2018-07-25T10:06:11.056Z,2396.00
2018-07-25T10:07:11.069Z,2392.00
2018-07-25T10:08:11.058Z,2388.00
2018-07-25T10:09:11.072Z,2380.00
2018-07-25T10:10:11.084Z,2376.00
2018-07-25T10:11:11.099Z,2372.00
2018-07-25T10:12:11.084Z,2372.00
2018-07-25T10:13:11.088Z,2368.00
2018-07-25T10:14:11.085Z,2368.00
2018-07-25T10:15:11.197Z,2368.00
2018-07-25T10:16:11.097Z,2364.00
2018-07-25T10:17:11.105Z,2360.00
2018-07-25T10:18:11.107Z,2360.00
2018-07-25T10:19:11.118Z,2368.00
2018-07-25T10:20:11.113Z,2372.00
2018-07-25T10:21:11.119Z,2368.00
2018-07-25T10:22:11.131Z,2360.00
2018-07-25T10:23:11.127Z,2364.00
2018-07-25T10:24:11.135Z,2360.00
2018-07-25T10:25:11.137Z,2364.00
2018-07-25T10:26:11.151Z,2372.00
2018-07-25T10:27:11.210Z,2364.00
2018-07-25T10:28:11.152Z,2360.00
2018-07-25T10:29:11.157Z,2344.00
2018-07-25T10:30:11.160Z,2340.00
2018-07-25T10:31:11.216Z,2332.00
2018-07-25T10:32:11.190Z,2324.00
2018-07-25T10:33:11.176Z,2316.00
2018-07-25T10:34:11.191Z,2324.00
2018-07-25T10:35:11.217Z,2324.00
2018-07-25T10:36:11.194Z,2328.00
2018-07-25T10:37:11.197Z,2320.00
2018-07-25T10:38:11.200Z,2304.00
2018-07-25T10:39:11.210Z,2316.00
2018-07-25T10:40:11.212Z,2296.00
2018-07-25T10:41:11.214Z,2300.00
2018-07-25T10:42:11.222Z,2308.00
2018-07-25T10:43:11.226Z,2296.00
2018-07-25T10:44:11.232Z,2280.00
2018-07-25T10:45:11.236Z,2256.00
2018-07-25T10:46:11.243Z,2288.00
2018-07-25T10:47:11.246Z,2296.00
2018-07-25T10:48:11.252Z,2296.00
2018-07-25T10:49:11.258Z,2300.00
2018-07-25T10:50:11.268Z,2296.00
2018-07-25T10:51:11.273Z,2280.00
2018-07-25T10:52:11.273Z,2268.00
2018-07-25T10:53:11.277Z,2284.00
2018-07-25T10:54:11.282Z,2276.00
2018-07-25T10:55:11.291Z,2236.00
2018-07-25T10:56:11.292Z,2196.00
2018-07-25T10:57:11.303Z,2260.00
2018-07-25T10:58:11.304Z,2284.00
2018-07-25T10:59:11.309Z,2280.00
2018-07-25T11:00:11.313Z,2288.00
2018-07-25T11:01:11.320Z,2276.00
2018-07-25T11:02:11.357Z,2256.00
2018-07-25T11:03:11.329Z,2272.00
2018-07-25T11:04:11.335Z,2288.00
2018-07-25T11:05:11.342Z,2316.00
2018-07-25T11:06:11.345Z,2320.00
2018-07-25T11:07:11.351Z,2336.00
2018-07-25T11:08:11.356Z,2328.00
2018-07-25T11:09:11.364Z,2320.00
2018-07-25T11:10:11.365Z,2316.00
2018-07-25T11:11:11.374Z,2296.00
2018-07-25T11:12:11.377Z,2296.00
2018-07-25T11:13:11.380Z,2280.00
2018-07-25T11:14:11.386Z,2280.00
2018-07-25T11:15:11.393Z,2288.00
2018-07-25T11:16:11.399Z,2296.00
2018-07-25T11:17:11.403Z,2296.00
2018-07-25T11:18:11.407Z,2304.00
2018-07-25T11:19:11.494Z,2316.00
2018-07-25T11:20:11.417Z,2312.00
2018-07-25T11:21:11.422Z,2308.00
2018-07-25T11:22:11.427Z,2312.00
2018-07-25T11:23:11.552Z,2316.00
2018-07-25T11:24:11.438Z,2332.00
2018-07-25T11:25:11.447Z,2328.00
2018-07-25T11:26:11.447Z,2300.00
2018-07-25T11:27:11.456Z,2288.00
2018-07-25T11:28:11.456Z,2288.00
2018-07-25T11:29:11.465Z,2264.00
2018-07-25T11:30:11.473Z,2272.00
2018-07-25T11:31:11.476Z,2288.00
2018-07-25T11:32:11.479Z,2312.00
2018-07-25T11:33:11.487Z,2324.00
2018-07-25T11:34:11.585Z,2328.00
2018-07-25T11:35:11.494Z,2324.00
2018-07-25T11:36:11.502Z,2324.00
2018-07-25T11:37:11.506Z,2320.00
2018-07-25T11:38:11.524Z,2320.00
2018-07-25T11:39:11.515Z,2316.00
2018-07-25T11:40:11.523Z,2332.00
2018-07-25T11:41:11.530Z,2340.00
2018-07-25T11:42:11.533Z,2340.00
2018-07-25T11:43:11.541Z,2344.00
2018-07-25T11:44:11.541Z,2356.00
2018-07-25T11:45:11.546Z,2352.00
2018-07-25T11:46:11.559Z,2340.00
2018-07-25T11:47:11.564Z,2340.00
2018-07-25T11:48:11.566Z,2364.00
2018-07-25T11:49:11.566Z,2368.00
2018-07-25T11:50:11.579Z,2368.00
2018-07-25T11:51:11.580Z,2368.00
2018-07-25T11:52:11.583Z,2388.00
2018-07-25T11:53:11.590Z,2408.00
2018-07-25T11:54:11.593Z,2428.00
2018-07-25T11:55:11.605Z,2428.00
2018-07-25T11:56:11.605Z,2412.00
2018-07-25T11:57:11.612Z,2400.00
2018-07-25T11:58:11.617Z,2400.00
2018-07-25T11:59:11.621Z,2400.00
2018-07-25T12:00:11.627Z,2396.00
2018-07-25T12:01:11.684Z,2400.00
2018-07-25T12:02:11.640Z,2404.00
2018-07-25T12:03:11.643Z,2416.00
2018-07-25T12:04:11.655Z,2432.00
2018-07-25T12:05:11.654Z,2444.00
2018-07-25T12:06:11.663Z,2448.00
2018-07-25T12:07:11.665Z,2436.00
2018-07-25T12:08:11.678Z,2360.00
2018-07-25T12:09:11.677Z,1816.00
2018-07-25T12:10:11.684Z,2064.00
2018-07-25T12:11:11.689Z,2464.00
2018-07-25T12:12:11.693Z,2472.00
2018-07-25T12:13:11.702Z,2484.00
2018-07-25T12:14:11.707Z,2492.00
2018-07-25T12:15:11.720Z,2492.00
2018-07-25T12:16:11.717Z,2504.00
2018-07-25T12:17:11.723Z,2492.00
2018-07-25T12:18:11.731Z,2464.00
2018-07-25T12:19:11.740Z,2440.00
2018-07-25T12:20:11.737Z,2476.00
2018-07-25T12:21:11.747Z,2488.00
2018-07-25T12:22:11.754Z,2480.00
2018-07-25T12:23:11.760Z,2484.00
2018-07-25T12:24:11.760Z,2488.00
2018-07-25T12:25:11.765Z,2492.00
2018-07-25T12:26:11.777Z,2508.00
2018-07-25T12:27:11.777Z,2516.00